createdAt,value
2023-04-23T00:00:30.694Z,20.86
2023-04-23T00:02:59.311Z,20.86
2023-04-23T00:05:28.177Z,20.84
2023-04-23T00:07:56.668Z,20.86
2023-04-23T00:10:25.291Z,20.85
2023-04-23T00:12:54.030Z,20.83
2023-04-23T00:15:22.555Z,20.84
2023-04-23T00:17:51.153Z,20.85
2023-04-23T00:20:19.321Z,20.86
2023-04-23T00:22:47.751Z,20.87
2023-04-23T00:25:15.877Z,20.86
2023-04-23T00:27:44.334Z,20.87
2023-04-23T00:30:12.970Z,20.88
2023-04-23T00:32:41.915Z,20.89
2023-04-23T00:35:10.294Z,20.91
2023-04-23T00:37:38.728Z,20.93
2023-04-23T00:40:08.264Z,20.92
2023-04-23T00:42:38.765Z,20.94
2023-04-23T00:45:08.900Z,20.95
2023-04-23T00:47:37.320Z,20.96
2023-04-23T00:50:06.686Z,20.95
2023-04-23T00:52:36.271Z,20.95
2023-04-23T00:55:05.045Z,20.95
2023-04-23T00:57:33.713Z,20.93
2023-04-23T01:00:02.009Z,20.90
2023-04-23T01:02:31.108Z,20.90
2023-04-23T01:05:00.559Z,20.89
2023-04-23T01:07:33.416Z,20.86
2023-04-23T01:10:02.408Z,20.85
2023-04-23T01:12:31.834Z,20.81
2023-04-23T01:15:00.275Z,20.78
2023-04-23T01:17:28.983Z,20.79
2023-04-23T01:19:57.316Z,20.79
2023-04-23T01:22:25.672Z,20.77
2023-04-23T01:24:54.046Z,20.78
2023-04-23T01:27:25.114Z,20.76
2023-04-23T01:29:53.520Z,20.77
2023-04-23T01:32:21.823Z,20.75
2023-04-23T01:34:50.208Z,20.72
2023-04-23T01:37:18.408Z,20.71
2023-04-23T01:39:46.712Z,20.64
2023-04-23T01:42:16.127Z,20.64
2023-04-23T01:44:44.572Z,20.63
2023-04-23T01:47:12.755Z,20.58
2023-04-23T01:49:41.387Z,20.56
2023-04-23T01:52:10.114Z,20.51
2023-04-23T01:54:38.734Z,20.50
2023-04-23T01:57:07.887Z,20.46
2023-04-23T01:59:37.906Z,20.40
2023-04-23T02:02:10.867Z,20.36
2023-04-23T02:04:40.090Z,20.33
2023-04-23T02:07:09.206Z,20.33
2023-04-23T02:09:37.964Z,20.31
2023-04-23T02:12:08.666Z,20.28
2023-04-23T02:14:37.027Z,20.26
2023-04-23T02:17:05.326Z,20.24
2023-04-23T02:19:35.255Z,20.22
2023-04-23T02:22:03.591Z,20.18
2023-04-23T02:24:32.512Z,20.14
2023-04-23T02:27:00.723Z,20.15
2023-04-23T02:29:29.441Z,20.13
2023-04-23T02:31:58.222Z,20.13
2023-04-23T02:34:26.612Z,20.10
2023-04-23T02:36:54.945Z,20.08
2023-04-23T02:39:23.133Z,20.03
2023-04-23T02:41:51.752Z,20.01
2023-04-23T02:44:19.963Z,20.03
2023-04-23T02:46:48.229Z,20.00
2023-04-23T02:49:16.773Z,19.99
2023-04-23T02:51:45.070Z,19.97
2023-04-23T02:54:13.836Z,19.95
2023-04-23T02:56:42.206Z,19.92
2023-04-23T02:59:11.189Z,19.88
2023-04-23T03:01:40.081Z,19.87
2023-04-23T03:04:09.009Z,19.85
2023-04-23T03:06:37.887Z,19.82
2023-04-23T03:09:06.177Z,19.81
2023-04-23T03:11:34.512Z,19.84
2023-04-23T03:14:03.246Z,19.86
2023-04-23T03:16:32.234Z,19.87
2023-04-23T03:19:01.574Z,19.89
2023-04-23T03:21:30.103Z,19.89
2023-04-23T03:23:58.443Z,19.92
2023-04-23T03:26:26.887Z,19.92
2023-04-23T03:28:55.191Z,19.92
2023-04-23T03:31:24.607Z,19.91
2023-04-23T03:33:53.384Z,19.93
2023-04-23T03:36:26.118Z,19.96
2023-04-23T03:38:54.701Z,19.96
2023-04-23T03:41:24.043Z,19.99
2023-04-23T03:43:52.657Z,20.01
2023-04-23T03:46:51.333Z,20.06
2023-04-23T03:49:19.693Z,20.07
2023-04-23T03:51:47.943Z,20.05
2023-04-23T03:54:16.838Z,20.07
2023-04-23T03:56:59.503Z,20.09
2023-04-23T03:59:30.012Z,20.09
2023-04-23T04:02:00.496Z,20.13
2023-04-23T04:04:30.032Z,20.12
2023-04-23T04:07:00.606Z,20.12
2023-04-23T04:09:29.274Z,20.19
2023-04-23T04:12:04.399Z,20.22
2023-04-23T04:14:33.026Z,20.23
2023-04-23T04:17:01.175Z,20.26
2023-04-23T04:19:29.863Z,20.27
2023-04-23T04:21:58.111Z,20.31
2023-04-23T04:24:26.516Z,20.38
2023-04-23T04:26:55.104Z,20.41
2023-04-23T04:29:24.209Z,20.45
2023-04-23T04:31:56.671Z,20.49
2023-04-23T04:34:24.908Z,20.52
2023-04-23T04:36:54.100Z,20.50
2023-04-23T04:39:22.540Z,20.58
2023-04-23T04:41:50.741Z,20.65
2023-04-23T04:44:19.453Z,20.65
2023-04-23T04:46:48.302Z,20.65
2023-04-23T04:49:19.702Z,20.70
2023-04-23T04:51:48.421Z,20.75
2023-04-23T04:54:17.285Z,20.79
2023-04-23T04:56:45.638Z,20.88
2023-04-23T04:59:14.089Z,20.91
2023-04-23T05:01:42.655Z,20.96
2023-04-23T05:04:11.361Z,21.02
2023-04-23T05:06:39.923Z,21.03
2023-04-23T05:09:08.639Z,21.07
2023-04-23T05:11:37.096Z,21.18
2023-04-23T05:14:05.751Z,21.27
2023-04-23T05:16:34.731Z,21.37
2023-04-23T05:19:03.006Z,21.44
2023-04-23T05:21:31.889Z,21.49
2023-04-23T05:24:01.241Z,21.58
2023-04-23T05:26:29.690Z,21.69
2023-04-23T05:28:58.067Z,21.77
2023-04-23T05:31:28.739Z,21.86
2023-04-23T05:33:58.391Z,21.97
2023-04-23T05:36:26.690Z,22.05
2023-04-23T05:38:55.285Z,22.14
2023-04-23T05:41:23.592Z,22.23
2023-04-23T05:43:51.962Z,22.31
2023-04-23T05:46:20.728Z,22.38
2023-04-23T05:48:49.108Z,22.47
2023-04-23T05:51:17.556Z,22.55
2023-04-23T05:53:45.790Z,22.65
2023-04-23T05:56:14.276Z,22.72
2023-04-23T05:58:42.776Z,22.76
2023-04-23T06:01:11.117Z,22.87
2023-04-23T06:03:42.529Z,22.95
2023-04-23T06:06:14.224Z,23.03
2023-04-23T06:08:43.087Z,23.10
2023-04-23T06:11:12.156Z,23.21
2023-04-23T06:13:43.631Z,23.30
2023-04-23T06:16:12.401Z,23.39
2023-04-23T06:18:40.764Z,23.41
2023-04-23T06:21:09.010Z,23.50
2023-04-23T06:23:37.500Z,23.55
2023-04-23T06:26:05.903Z,23.61
2023-04-23T06:28:34.301Z,23.71
2023-04-23T06:31:23.168Z,23.82
2023-04-23T06:33:52.314Z,23.87
2023-04-23T06:36:20.592Z,23.96
2023-04-23T06:38:48.905Z,24.05
2023-04-23T06:41:17.402Z,24.15
2023-04-23T06:43:46.336Z,24.22
2023-04-23T06:46:22.726Z,24.30
2023-04-23T06:48:51.512Z,24.39
2023-04-23T06:51:19.783Z,24.49
2023-04-23T06:53:48.110Z,24.56
2023-04-23T06:56:16.314Z,24.67
2023-04-23T06:58:44.745Z,24.74
2023-04-23T07:01:20.411Z,24.86
2023-04-23T07:03:51.601Z,24.92
2023-04-23T07:06:20.702Z,25.02
2023-04-23T07:08:49.395Z,25.12
2023-04-23T07:11:17.935Z,25.13
2023-04-23T07:13:46.969Z,25.25
2023-04-23T07:16:15.500Z,25.34
2023-04-23T07:18:43.925Z,25.43
2023-04-23T07:21:12.467Z,25.57
2023-04-23T07:23:40.841Z,25.74
2023-04-23T07:26:09.095Z,25.86
2023-04-23T07:28:37.291Z,25.89
2023-04-23T07:31:05.599Z,25.88
2023-04-23T07:33:34.145Z,25.96
2023-04-23T07:36:02.850Z,26.07
2023-04-23T07:38:32.333Z,26.18
2023-04-23T07:41:00.585Z,26.21
2023-04-23T07:43:29.002Z,26.28
2023-04-23T07:45:57.763Z,26.35
2023-04-23T07:48:26.053Z,26.40
2023-04-23T07:50:54.415Z,26.42
2023-04-23T07:53:23.135Z,26.38
2023-04-23T07:55:51.702Z,26.39
2023-04-23T07:58:20.364Z,26.39
2023-04-23T08:00:48.663Z,26.35
2023-04-23T08:03:17.351Z,26.35
2023-04-23T08:05:46.031Z,26.35
2023-04-23T08:08:14.463Z,26.35
2023-04-23T08:10:43.515Z,26.38
2023-04-23T08:13:11.972Z,26.39
2023-04-23T08:15:40.572Z,26.43
2023-04-23T08:18:08.934Z,26.51
2023-04-23T08:20:37.299Z,26.59
2023-04-23T08:23:06.291Z,26.68
2023-04-23T08:25:35.270Z,26.79
2023-04-23T08:28:04.095Z,26.88
2023-04-23T08:30:32.832Z,26.96
2023-04-23T08:33:01.304Z,26.99
2023-04-23T08:35:29.697Z,27.07
2023-04-23T08:37:58.447Z,27.13
2023-04-23T08:40:26.789Z,27.21
2023-04-23T08:42:59.070Z,27.26
2023-04-23T08:45:27.702Z,27.34
2023-04-23T08:48:01.587Z,27.40
2023-04-23T08:50:31.503Z,27.50
2023-04-23T08:53:00.215Z,27.59
2023-04-23T08:55:28.717Z,27.63
2023-04-23T08:57:58.496Z,27.67
2023-04-23T09:00:26.831Z,27.71
2023-04-23T09:02:55.536Z,27.74
2023-04-23T09:05:26.204Z,27.79
2023-04-23T09:07:59.959Z,27.89
2023-04-23T09:10:29.482Z,27.94
2023-04-23T09:12:58.501Z,28.01
2023-04-23T09:15:27.148Z,28.08
2023-04-23T09:17:55.735Z,28.17
2023-04-23T09:20:26.141Z,28.22
2023-04-23T09:22:54.673Z,28.29
2023-04-23T09:25:24.185Z,28.34
2023-04-23T09:27:52.877Z,28.36
2023-04-23T09:30:21.234Z,28.44
2023-04-23T09:32:50.065Z,28.51
2023-04-23T09:35:22.379Z,28.56
2023-04-23T09:37:52.706Z,28.51
2023-04-23T09:42:49.870Z,27.26
2023-04-23T09:45:18.980Z,28.27
2023-04-23T09:47:54.867Z,28.27
2023-04-23T09:50:38.584Z,28.26
2023-04-23T09:53:08.594Z,28.33
2023-04-23T09:55:42.070Z,28.42
2023-04-23T09:58:15.314Z,28.50
2023-04-23T10:00:44.003Z,28.55
2023-04-23T10:03:12.669Z,28.53
2023-04-23T10:06:00.491Z,28.51
2023-04-23T10:08:30.860Z,28.45
2023-04-23T10:11:10.127Z,28.35
2023-04-23T10:13:47.742Z,28.29
2023-04-23T10:16:23.329Z,28.24
2023-04-23T10:18:57.073Z,28.31
2023-04-23T10:21:33.933Z,28.36
2023-04-23T10:24:04.865Z,28.50
2023-04-23T10:26:33.298Z,28.51
2023-04-23T10:29:01.677Z,28.50
2023-04-23T10:31:30.212Z,28.53
2023-04-23T10:33:59.528Z,28.63
2023-04-23T10:36:29.303Z,28.74
2023-04-23T10:39:01.345Z,28.89
2023-04-23T10:41:36.612Z,28.91
2023-04-23T10:44:06.881Z,28.97
2023-04-23T10:46:37.796Z,29.08
2023-04-23T10:49:10.642Z,29.23
2023-04-23T10:54:13.506Z,29.54
2023-04-23T10:56:42.376Z,29.66
2023-04-23T10:59:20.936Z,29.78
2023-04-23T11:01:52.884Z,29.90
2023-04-23T11:04:25.547Z,29.92
2023-04-23T11:06:58.069Z,29.89
2023-04-23T11:09:35.558Z,29.86
2023-04-23T11:12:06.830Z,29.85
2023-04-23T11:14:48.764Z,29.89
2023-04-23T11:17:37.435Z,29.96
2023-04-23T11:20:10.749Z,29.99
2023-04-23T11:22:40.811Z,30.01
2023-04-23T11:25:10.592Z,29.99
2023-04-23T11:27:45.524Z,29.99
2023-04-23T11:30:15.261Z,30.01
2023-04-23T11:32:50.900Z,30.07
2023-04-23T11:35:20.698Z,30.13
2023-04-23T11:37:49.593Z,30.12
2023-04-23T11:40:22.120Z,30.07
2023-04-23T11:42:51.867Z,29.95
2023-04-23T11:45:21.756Z,29.82
2023-04-23T11:47:56.102Z,29.75
2023-04-23T11:50:30.350Z,29.69
2023-04-23T11:53:04.625Z,29.60
2023-04-23T11:55:32.917Z,29.53
2023-04-23T11:58:01.350Z,29.51
2023-04-23T12:00:30.042Z,29.48
2023-04-23T12:03:02.818Z,29.45
2023-04-23T12:05:33.298Z,29.46
2023-04-23T12:08:18.369Z,29.48
2023-04-23T12:10:49.438Z,29.42
2023-04-23T12:13:28.355Z,29.36
2023-04-23T12:16:02.542Z,29.28
2023-04-23T12:18:32.744Z,29.24
2023-04-23T12:21:14.689Z,29.19
2023-04-23T12:23:45.243Z,29.15
2023-04-23T12:26:16.949Z,29.09
2023-04-23T12:28:56.063Z,29.12
2023-04-23T12:31:28.986Z,29.21
2023-04-23T12:34:07.789Z,29.29
2023-04-23T12:36:37.527Z,29.38
2023-04-23T12:39:27.005Z,29.34
2023-04-23T12:42:05.123Z,29.36
2023-04-23T12:44:37.931Z,29.47
2023-04-23T12:47:07.834Z,29.52
2023-04-23T12:49:37.156Z,29.50
2023-04-23T12:52:06.681Z,29.51
2023-04-23T12:54:39.455Z,29.46
2023-04-23T12:57:10.249Z,29.34
2023-04-23T12:59:38.499Z,29.17
2023-04-23T13:02:07.703Z,29.04
2023-04-23T13:04:36.441Z,29.13
2023-04-23T13:07:04.811Z,29.29
2023-04-23T13:09:33.210Z,29.45
2023-04-23T13:12:02.755Z,29.53
2023-04-23T13:14:32.535Z,29.61
2023-04-23T13:17:01.225Z,29.67
2023-04-23T13:19:30.108Z,29.65
2023-04-23T13:21:58.534Z,29.68
2023-04-23T13:24:27.216Z,29.80
2023-04-23T13:26:56.427Z,29.95
2023-04-23T13:29:27.477Z,30.01
2023-04-23T13:31:56.771Z,30.05
2023-04-23T13:34:25.272Z,30.07
2023-04-23T13:36:53.497Z,30.10
2023-04-23T13:39:23.796Z,30.08
2023-04-23T13:42:06.160Z,29.92
2023-04-23T13:44:37.295Z,29.66
2023-04-23T13:47:05.605Z,29.48
2023-04-23T13:49:34.266Z,29.39
2023-04-23T13:52:07.119Z,29.26
2023-04-23T13:54:36.153Z,29.11
2023-04-23T13:57:04.609Z,29.02
2023-04-23T13:59:33.382Z,28.95
2023-04-23T14:02:01.776Z,28.93
2023-04-23T14:04:30.283Z,28.93
2023-04-23T14:06:58.623Z,28.89
2023-04-23T14:09:26.856Z,28.88
2023-04-23T14:11:55.234Z,28.87
2023-04-23T14:14:23.500Z,28.77
2023-04-23T14:16:51.876Z,28.70
2023-04-23T14:19:20.120Z,28.63
2023-04-23T14:21:48.425Z,28.64
2023-04-23T14:24:24.700Z,28.59
2023-04-23T14:26:53.263Z,28.59
2023-04-23T14:29:25.708Z,28.47
2023-04-23T14:31:54.034Z,28.42
2023-04-23T14:34:22.678Z,28.46
2023-04-23T14:36:49.780Z,28.40
2023-04-23T14:39:17.380Z,28.31
2023-04-23T14:41:45.131Z,28.27
2023-04-23T14:44:12.300Z,28.24
2023-04-23T14:46:39.448Z,28.19
2023-04-23T14:49:06.756Z,28.14
2023-04-23T14:51:33.980Z,28.13
2023-04-23T14:54:01.150Z,28.20
2023-04-23T14:56:28.376Z,28.35
2023-04-23T14:58:55.594Z,28.46
2023-04-23T15:01:22.821Z,28.62
2023-04-23T15:03:50.480Z,28.76
2023-04-23T15:06:17.977Z,28.85
2023-04-23T15:08:45.113Z,28.91
2023-04-23T15:11:15.534Z,29.01
2023-04-23T15:13:42.567Z,29.08
2023-04-23T15:16:26.278Z,29.15
2023-04-23T15:19:00.067Z,29.28
2023-04-23T15:21:27.180Z,29.37
2023-04-23T15:23:56.466Z,29.44
2023-04-23T15:26:23.834Z,29.53
2023-04-23T15:28:51.456Z,29.61
2023-04-23T15:31:18.689Z,29.67
2023-04-23T15:33:47.204Z,29.59
2023-04-23T15:36:14.363Z,29.51
2023-04-23T15:38:41.602Z,29.45
2023-04-23T15:41:08.593Z,29.48
2023-04-23T15:43:35.756Z,29.46
2023-04-23T15:46:03.894Z,29.46
2023-04-23T15:48:31.029Z,29.39
2023-04-23T15:50:58.433Z,29.26
2023-04-23T15:53:25.478Z,29.24
2023-04-23T15:55:52.577Z,29.17
2023-04-23T15:58:19.825Z,29.08
2023-04-23T16:00:47.186Z,28.92
2023-04-23T16:03:15.388Z,28.78
2023-04-23T16:05:43.392Z,28.60
2023-04-23T16:08:10.862Z,28.41
2023-04-23T16:10:38.312Z,28.27
2023-04-23T16:13:06.569Z,28.16
2023-04-23T16:15:33.951Z,28.04
2023-04-23T16:18:01.238Z,27.84
2023-04-23T16:20:28.901Z,27.70
2023-04-23T16:22:56.251Z,27.58
2023-04-23T16:25:23.294Z,27.48
2023-04-23T16:27:50.555Z,27.34
2023-04-23T16:30:17.579Z,27.25
2023-04-23T16:32:44.994Z,27.18
2023-04-23T16:35:12.230Z,27.05
2023-04-23T16:37:39.200Z,26.89
2023-04-23T16:40:07.379Z,26.75
2023-04-23T16:42:34.535Z,26.59
2023-04-23T16:45:02.352Z,26.43
2023-04-23T16:47:29.334Z,26.30
2023-04-23T16:49:56.472Z,26.21
2023-04-23T16:52:23.705Z,26.00
2023-04-23T16:54:51.100Z,25.88
2023-04-23T16:57:18.596Z,25.72
2023-04-23T16:59:45.730Z,25.59
2023-04-23T17:02:12.861Z,25.51
2023-04-23T17:04:40.482Z,25.41
2023-04-23T17:07:08.186Z,25.27
2023-04-23T17:09:35.594Z,25.14
2023-04-23T17:12:02.707Z,25.02
2023-04-23T17:14:29.797Z,24.90
2023-04-23T17:16:57.101Z,24.76
2023-04-23T17:19:24.222Z,24.61
2023-04-23T17:21:51.364Z,24.48
2023-04-23T17:24:18.431Z,24.36
2023-04-23T17:26:45.536Z,24.28
2023-04-23T17:29:13.706Z,24.18
2023-04-23T17:31:40.834Z,24.07
2023-04-23T17:34:08.425Z,23.96
2023-04-23T17:36:36.135Z,23.92
2023-04-23T17:39:03.389Z,23.79
2023-04-23T17:41:30.937Z,23.68
2023-04-23T17:43:58.005Z,23.58
2023-04-23T17:46:25.509Z,23.50
2023-04-23T17:48:52.767Z,23.44
2023-04-23T17:51:19.898Z,23.37
2023-04-23T17:53:48.675Z,23.32
2023-04-23T17:56:16.124Z,23.26
2023-04-23T17:58:43.411Z,23.20
2023-04-23T18:01:10.931Z,23.13
2023-04-23T18:03:38.456Z,23.06
2023-04-23T18:06:06.570Z,23.01
2023-04-23T18:08:33.924Z,22.97
2023-04-23T18:11:01.395Z,22.91
2023-04-23T18:13:28.559Z,22.85
2023-04-23T18:15:55.662Z,22.78
2023-04-23T18:18:23.014Z,22.72
2023-04-23T18:20:52.178Z,22.68
2023-04-23T18:23:22.584Z,22.64
2023-04-23T18:25:49.800Z,22.57
2023-04-23T18:28:16.882Z,22.49
2023-04-23T18:30:44.101Z,22.43
2023-04-23T18:33:38.471Z,22.38
2023-04-23T18:36:08.087Z,22.34
2023-04-23T18:38:43.249Z,22.25
2023-04-23T18:41:10.242Z,22.18
2023-04-23T18:43:37.296Z,22.15
2023-04-23T18:46:04.667Z,22.11
2023-04-23T18:48:34.979Z,22.03
2023-04-23T18:51:06.623Z,21.98
2023-04-23T18:53:33.866Z,21.94
2023-04-23T18:56:01.565Z,21.87
2023-04-23T18:58:30.189Z,21.83
2023-04-23T19:00:57.776Z,21.79
2023-04-23T19:03:27.072Z,21.74
2023-04-23T19:05:55.437Z,21.70
2023-04-23T19:08:22.972Z,21.65
2023-04-23T19:10:50.046Z,21.62
2023-04-23T19:13:18.958Z,21.52
2023-04-23T19:15:45.961Z,21.42
2023-04-23T19:18:13.091Z,21.37
2023-04-23T19:20:40.221Z,21.32
2023-04-23T19:23:09.027Z,21.26
2023-04-23T19:25:36.722Z,21.20
2023-04-23T19:28:03.752Z,21.13
2023-04-23T19:30:30.849Z,21.12
2023-04-23T19:32:57.935Z,21.06
2023-04-23T19:35:25.075Z,21.01
2023-04-23T19:37:52.292Z,20.95
2023-04-23T19:40:19.491Z,20.91
2023-04-23T19:42:46.818Z,20.86
2023-04-23T19:45:16.705Z,20.83
2023-04-23T19:47:43.699Z,20.78
2023-04-23T19:50:12.009Z,20.74
2023-04-23T19:52:39.316Z,20.72
2023-04-23T19:55:08.045Z,20.66
2023-04-23T19:57:35.078Z,20.61
2023-04-23T20:00:02.203Z,20.59
2023-04-23T20:02:35.199Z,20.55
2023-04-23T20:05:03.439Z,20.54
2023-04-23T20:07:31.123Z,20.55
2023-04-23T20:09:58.197Z,20.55
2023-04-23T20:12:25.272Z,20.53
2023-04-23T20:14:54.409Z,20.50
2023-04-23T20:17:21.863Z,20.45
2023-04-23T20:19:50.535Z,20.45
2023-04-23T20:22:17.762Z,20.41
2023-04-23T20:24:47.192Z,20.40
2023-04-23T20:27:14.576Z,20.38
2023-04-23T20:29:42.354Z,20.39
2023-04-23T20:32:09.713Z,20.41
2023-04-23T20:34:37.218Z,20.45
2023-04-23T20:37:04.271Z,20.36
2023-04-23T20:39:32.827Z,20.31
2023-04-23T20:42:01.165Z,20.27
2023-04-23T20:44:28.318Z,20.25
2023-04-23T20:46:58.061Z,20.24
2023-04-23T20:49:25.829Z,20.25
2023-04-23T20:51:53.501Z,20.26
2023-04-23T20:54:20.571Z,20.21
2023-04-23T20:56:47.677Z,20.18
2023-04-23T20:59:15.501Z,20.18
2023-04-23T21:01:42.478Z,20.18
2023-04-23T21:04:09.805Z,20.16
2023-04-23T21:06:36.949Z,20.11
2023-04-23T21:09:04.742Z,20.12
2023-04-23T21:11:31.870Z,20.07
2023-04-23T21:14:00.953Z,20.05
2023-04-23T21:16:28.286Z,20.03
2023-04-23T21:18:55.653Z,19.97
2023-04-23T21:21:27.239Z,19.91
2023-04-23T21:23:54.879Z,19.91
2023-04-23T21:26:22.158Z,19.87
2023-04-23T21:28:49.636Z,19.83
2023-04-23T21:31:27.499Z,19.79
2023-04-23T21:33:56.884Z,19.76
2023-04-23T21:36:24.224Z,19.72
2023-04-23T21:38:53.295Z,19.71
2023-04-23T21:41:20.329Z,19.67
2023-04-23T21:43:47.370Z,19.62
2023-04-23T21:46:14.414Z,19.62
2023-04-23T21:48:41.985Z,19.60
2023-04-23T21:51:09.311Z,19.56
2023-04-23T21:53:36.343Z,19.52
2023-04-23T21:59:06.382Z,18.36
2023-04-23T22:01:36.091Z,19.44
2023-04-23T22:04:04.867Z,19.43
2023-04-23T22:06:32.117Z,19.38
2023-04-23T22:08:59.298Z,19.37
2023-04-23T22:11:26.397Z,19.39
2023-04-23T22:13:53.930Z,19.34
2023-04-23T22:16:28.633Z,19.34
2023-04-23T22:18:57.136Z,19.30
2023-04-23T22:21:24.345Z,19.20
2023-04-23T22:23:51.585Z,19.16
2023-04-23T22:26:18.700Z,19.09
2023-04-23T22:28:45.729Z,19.02
2023-04-23T22:31:13.245Z,18.97
2023-04-23T22:33:40.313Z,18.93
2023-04-23T22:36:07.676Z,18.84
2023-04-23T22:38:35.099Z,18.78
2023-04-23T22:41:02.436Z,18.75
2023-04-23T22:43:29.818Z,18.71
2023-04-23T22:45:57.067Z,18.70
2023-04-23T22:48:24.418Z,18.66
2023-04-23T22:50:51.582Z,18.64
2023-04-23T22:53:19.743Z,18.63
2023-04-23T22:55:47.106Z,18.60
2023-04-23T22:58:14.284Z,18.59
2023-04-23T23:00:41.506Z,18.56
2023-04-23T23:03:08.848Z,18.56
2023-04-23T23:05:35.920Z,18.53
2023-04-23T23:08:03.038Z,18.51
2023-04-23T23:10:30.185Z,18.50
2023-04-23T23:12:57.541Z,18.46
2023-04-23T23:15:24.649Z,18.43
2023-04-23T23:17:51.798Z,18.42
2023-04-23T23:20:20.401Z,18.37
2023-04-23T23:22:47.408Z,18.35
2023-04-23T23:25:14.735Z,18.30
2023-04-23T23:27:41.890Z,18.23
2023-04-23T23:30:09.844Z,18.20
2023-04-23T23:32:36.860Z,18.14
2023-04-23T23:35:04.353Z,18.11
2023-04-23T23:37:31.621Z,18.03
2023-04-23T23:39:58.877Z,18.00
2023-04-23T23:42:25.954Z,17.99
2023-04-23T23:44:53.003Z,17.96
2023-04-23T23:47:20.584Z,17.92
2023-04-23T23:49:47.670Z,17.90
2023-04-23T23:52:14.720Z,17.84
2023-04-23T23:54:41.993Z,17.81
2023-04-23T23:57:09.276Z,17.81
2023-04-23T23:59:36.700Z,17.77
